< < Back
Terminal Aerodrome Forecast


Current Version              Previous Versions:   1  2  3  4  5  6  7  8  9  

Terminal Aerodrome Forecast

992
FTUS44 KMRX 220520
TAFCHA
TAF
KCHA 220520Z 2206/2306 36008KT P6SM BKN040
     FM220900 01008KT P6SM SKC=

Latest METAR

255
SAUS80 KWBC 231000 CCA
MTRCHA
METAR KCHA 230953Z 00000KT 10SM CLR 10/08 A3032 RMK AO2 SLP263 FIRST
T01000083 $


USA.gov is the U.S. government's official web portal to all federal, state and local government web resources and services.